createdAt,value
2018-07-28T00:00:46.482Z,1009.96
2018-07-28T00:01:46.468Z,1009.93
2018-07-28T00:02:46.440Z,1009.95
2018-07-28T00:03:46.418Z,1009.90
2018-07-28T00:04:46.397Z,1009.91
2018-07-28T00:05:46.377Z,1009.87
2018-07-28T00:06:46.362Z,1009.86
2018-07-28T00:07:46.339Z,1009.81
2018-07-28T00:08:46.325Z,1009.82
2018-07-28T00:09:46.297Z,1009.84
2018-07-28T00:10:46.276Z,1009.80
2018-07-28T00:11:46.254Z,1009.78
2018-07-28T00:12:46.235Z,1009.79
2018-07-28T00:13:46.214Z,1009.73
2018-07-28T00:14:46.191Z,1009.77
2018-07-28T00:15:46.574Z,1009.78
2018-07-28T00:16:46.154Z,1009.74
2018-07-28T00:17:46.128Z,1009.74
2018-07-28T00:18:46.113Z,1009.77
2018-07-28T00:19:46.093Z,1009.75
2018-07-28T00:20:46.067Z,1009.77
2018-07-28T00:21:46.550Z,1009.73
2018-07-28T00:22:46.029Z,1009.74
2018-07-28T00:23:46.010Z,1009.69
2018-07-28T00:24:45.985Z,1009.70
2018-07-28T00:25:45.961Z,1009.66
2018-07-28T00:26:45.942Z,1009.65
2018-07-28T00:27:45.922Z,1009.67
2018-07-28T00:28:45.901Z,1009.64
2018-07-28T00:29:45.880Z,1009.66
2018-07-28T00:30:45.863Z,1009.61
2018-07-28T00:31:45.841Z,1009.59
2018-07-28T00:32:45.821Z,1009.62
2018-07-28T00:33:45.799Z,1009.59
2018-07-28T00:34:45.776Z,1009.55
2018-07-28T00:35:45.754Z,1009.59
2018-07-28T00:36:45.737Z,1009.58
2018-07-28T00:37:45.713Z,1009.56
2018-07-28T00:38:45.694Z,1009.54
2018-07-28T00:39:45.675Z,1009.51
2018-07-28T00:40:45.653Z,1009.45
2018-07-28T00:41:45.637Z,1009.46
2018-07-28T00:42:45.813Z,1009.44
2018-07-28T00:43:45.591Z,1009.45
2018-07-28T00:44:45.569Z,1009.44
2018-07-28T00:45:45.551Z,1009.41
2018-07-28T00:46:45.526Z,1009.37
2018-07-28T00:47:45.507Z,1009.37
2018-07-28T00:48:45.482Z,1009.41
2018-07-28T00:50:27.819Z,1009.36
2018-07-28T00:51:27.598Z,1009.37
2018-07-28T00:52:27.576Z,1009.35
2018-07-28T00:53:27.565Z,1009.35
2018-07-28T00:54:27.535Z,1009.34
2018-07-28T00:55:27.511Z,1009.33
2018-07-28T00:56:27.493Z,1009.26
2018-07-28T00:57:27.468Z,1009.23
2018-07-28T00:58:27.448Z,1009.20
2018-07-28T00:59:27.427Z,1009.16
2018-07-28T01:00:27.405Z,1009.17
2018-07-28T01:01:27.387Z,1009.16
2018-07-28T01:02:27.365Z,1009.17
2018-07-28T01:03:27.344Z,1009.14
2018-07-28T01:04:27.324Z,1009.16
2018-07-28T01:05:27.302Z,1009.11
2018-07-28T01:06:27.486Z,1009.12
2018-07-28T01:07:27.462Z,1009.05
2018-07-28T01:08:27.239Z,1009.04
2018-07-28T01:09:27.216Z,1009.06
2018-07-28T01:10:27.199Z,1009.09
2018-07-28T01:11:27.177Z,1009.01
2018-07-28T01:12:27.155Z,1008.95
2018-07-28T01:13:27.336Z,1008.93
2018-07-28T01:14:27.315Z,1008.85
2018-07-28T01:15:27.096Z,1008.86
2018-07-28T01:16:27.071Z,1008.87
2018-07-28T01:17:27.253Z,1008.89
2018-07-28T01:18:27.026Z,1008.88
2018-07-28T01:19:27.005Z,1008.92
2018-07-28T01:20:26.988Z,1008.92
2018-07-28T01:21:26.962Z,1008.90
2018-07-28T01:22:26.943Z,1008.95
2018-07-28T01:23:26.929Z,1008.96
2018-07-28T01:24:26.900Z,1008.84
2018-07-28T01:25:26.882Z,1008.90
2018-07-28T01:26:26.857Z,1008.85
2018-07-28T01:27:26.841Z,1008.84
2018-07-28T01:28:26.816Z,1008.83
2018-07-28T01:29:26.795Z,1008.75
2018-07-28T01:30:26.974Z,1008.80
2018-07-28T01:31:26.954Z,1008.83
2018-07-28T01:32:26.729Z,1008.86
2018-07-28T01:33:26.713Z,1008.88
2018-07-28T01:34:26.689Z,1008.87
2018-07-28T01:35:26.667Z,1008.87
2018-07-28T01:36:26.646Z,1008.80
2018-07-28T01:37:26.626Z,1008.81
2018-07-28T01:38:26.604Z,1008.84
2018-07-28T01:39:26.582Z,1008.81
2018-07-28T01:40:26.560Z,1008.80
2018-07-28T01:41:26.538Z,1008.84
2018-07-28T01:42:26.516Z,1008.79
2018-07-28T01:43:26.494Z,1008.80
2018-07-28T01:44:26.474Z,1008.73
2018-07-28T01:45:26.456Z,1008.72
2018-07-28T01:46:26.434Z,1008.73
2018-07-28T01:47:26.412Z,1008.78
2018-07-28T01:48:26.389Z,1008.71
2018-07-28T01:49:26.420Z,1008.75
2018-07-28T01:50:26.345Z,1008.71
2018-07-28T01:51:26.324Z,1008.73
2018-07-28T01:52:26.309Z,1008.71
2018-07-28T01:53:26.285Z,1008.68
2018-07-28T01:54:26.266Z,1008.68
2018-07-28T01:55:26.241Z,1008.67
2018-07-28T01:56:26.220Z,1008.66
2018-07-28T01:57:26.196Z,1008.66
2018-07-28T01:58:26.378Z,1008.59
2018-07-28T01:59:26.154Z,1008.57
2018-07-28T02:00:26.133Z,1008.55
2018-07-28T02:01:26.114Z,1008.55
2018-07-28T02:02:26.092Z,1008.56
2018-07-28T02:03:26.070Z,1008.54
2018-07-28T02:04:26.054Z,1008.51
2018-07-28T02:05:26.026Z,1008.52
2018-07-28T02:06:26.005Z,1008.50
2018-07-28T02:07:25.983Z,1008.48
2018-07-28T02:08:25.965Z,1008.46
2018-07-28T02:09:25.942Z,1008.50
2018-07-28T02:10:25.919Z,1008.43
2018-07-28T02:11:25.900Z,1008.43
2018-07-28T02:12:25.876Z,1008.37
2018-07-28T02:13:25.858Z,1008.35
2018-07-28T02:14:25.836Z,1008.35
2018-07-28T02:15:25.814Z,1008.35
2018-07-28T02:16:25.791Z,1008.32
2018-07-28T02:17:25.770Z,1008.27
2018-07-28T02:18:25.749Z,1008.27
2018-07-28T02:19:25.725Z,1008.24
2018-07-28T02:20:25.709Z,1008.23
2018-07-28T02:21:25.686Z,1008.24
2018-07-28T02:22:25.664Z,1008.28
2018-07-28T02:23:25.642Z,1008.22
2018-07-28T02:24:25.620Z,1008.24
2018-07-28T02:25:25.600Z,1008.23
2018-07-28T02:26:25.579Z,1008.23
2018-07-28T02:27:25.560Z,1008.22
2018-07-28T02:28:25.536Z,1008.23
2018-07-28T02:29:25.512Z,1008.24
2018-07-28T02:30:25.493Z,1008.21
2018-07-28T02:31:25.470Z,1008.17
2018-07-28T02:32:25.449Z,1008.18
2018-07-28T02:33:25.429Z,1008.15
2018-07-28T02:34:25.431Z,1008.18
2018-07-28T02:35:25.392Z,1008.17
2018-07-28T02:36:25.363Z,1008.09
2018-07-28T02:37:25.343Z,1008.18
2018-07-28T02:38:25.319Z,1008.12
2018-07-28T02:39:25.298Z,1008.12
2018-07-28T02:40:25.282Z,1008.09
2018-07-28T02:41:25.255Z,1008.11
2018-07-28T02:42:25.233Z,1008.10
2018-07-28T02:43:25.214Z,1008.10
2018-07-28T02:44:25.194Z,1008.06
2018-07-28T02:45:25.171Z,1008.04
2018-07-28T02:46:25.151Z,1008.06
2018-07-28T02:47:25.130Z,1008.03
2018-07-28T02:48:25.105Z,1008.05
2018-07-28T02:49:25.082Z,1007.99
2018-07-28T02:50:25.062Z,1007.97
2018-07-28T02:51:25.040Z,1008.02
2018-07-28T02:52:25.017Z,1007.96
2018-07-28T02:53:25.009Z,1007.96
2018-07-28T02:54:24.977Z,1007.99
2018-07-28T02:55:24.955Z,1007.97
2018-07-28T02:56:24.932Z,1007.95
2018-07-28T02:57:24.912Z,1007.92
2018-07-28T02:58:24.890Z,1007.87
2018-07-28T02:59:24.869Z,1007.86
2018-07-28T03:00:24.970Z,1007.81
2018-07-28T03:01:24.824Z,1007.81
2018-07-28T03:02:24.803Z,1007.81
2018-07-28T03:03:24.781Z,1007.81
2018-07-28T03:04:24.764Z,1007.76
2018-07-28T03:05:24.739Z,1007.72
2018-07-28T03:06:24.719Z,1007.74
2018-07-28T03:07:24.701Z,1007.69
2018-07-28T03:08:24.675Z,1007.69
2018-07-28T03:09:24.665Z,1007.66
2018-07-28T03:10:24.630Z,1007.68
2018-07-28T03:11:24.607Z,1007.63
2018-07-28T03:12:24.587Z,1007.61
2018-07-28T03:13:24.565Z,1007.65
2018-07-28T03:14:24.543Z,1007.63
2018-07-28T03:15:24.524Z,1007.68
2018-07-28T03:16:24.505Z,1007.65
2018-07-28T03:17:24.480Z,1007.67
2018-07-28T03:18:24.458Z,1007.67
2018-07-28T03:19:24.435Z,1007.66
2018-07-28T03:20:24.417Z,1007.65
2018-07-28T03:21:24.398Z,1007.63
2018-07-28T03:22:24.371Z,1007.69
2018-07-28T03:23:24.349Z,1007.68
2018-07-28T03:24:24.327Z,1007.70
2018-07-28T03:25:24.307Z,1007.69
2018-07-28T03:26:24.285Z,1007.77
2018-07-28T03:27:24.264Z,1007.76
2018-07-28T03:28:24.246Z,1007.70
2018-07-28T03:29:24.221Z,1007.70
2018-07-28T03:30:24.207Z,1007.65
2018-07-28T03:31:24.177Z,1007.71
2018-07-28T03:32:24.158Z,1007.67
2018-07-28T03:33:24.135Z,1007.66
2018-07-28T03:34:24.114Z,1007.69
2018-07-28T03:35:24.089Z,1007.67
2018-07-28T03:36:24.067Z,1007.65
2018-07-28T03:37:24.050Z,1007.64
2018-07-28T03:38:24.028Z,1007.63
2018-07-28T03:39:24.004Z,1007.59
2018-07-28T03:40:24.184Z,1007.61
2018-07-28T03:41:23.959Z,1007.59
2018-07-28T03:42:23.937Z,1007.56
2018-07-28T03:43:23.915Z,1007.60
2018-07-28T03:44:23.896Z,1007.53
2018-07-28T03:45:23.872Z,1007.55
2018-07-28T03:46:23.851Z,1007.58
2018-07-28T03:47:23.829Z,1007.56
2018-07-28T03:48:23.806Z,1007.53
2018-07-28T03:49:23.848Z,1007.48
2018-07-28T03:50:23.766Z,1007.47
2018-07-28T03:51:23.749Z,1007.45
2018-07-28T03:52:23.724Z,1007.48
2018-07-28T03:53:23.698Z,1007.51
2018-07-28T03:54:23.681Z,1007.53
2018-07-28T03:55:23.656Z,1007.49
2018-07-28T03:56:23.672Z,1007.50
2018-07-28T03:57:23.626Z,1007.51
2018-07-28T03:58:23.592Z,1007.53
2018-07-28T03:59:23.570Z,1007.51
2018-07-28T04:00:23.560Z,1007.50
2018-07-28T04:01:23.527Z,1007.52
2018-07-28T04:02:23.504Z,1007.46
2018-07-28T04:03:23.483Z,1007.48
2018-07-28T04:04:23.474Z,1007.49
2018-07-28T04:05:27.276Z,1007.39
2018-07-28T04:06:23.624Z,1007.38
2018-07-28T04:07:23.605Z,1007.41
2018-07-28T04:08:23.377Z,1007.41
2018-07-28T04:09:23.354Z,1007.39
2018-07-28T04:10:23.332Z,1007.43
2018-07-28T04:11:23.311Z,1007.42
2018-07-28T04:12:23.293Z,1007.41
2018-07-28T04:13:23.274Z,1007.34
2018-07-28T04:14:23.311Z,1007.33
2018-07-28T04:15:23.234Z,1007.28
2018-07-28T04:16:23.208Z,1007.34
2018-07-28T04:17:23.185Z,1007.28
2018-07-28T04:18:23.164Z,1007.27
2018-07-28T04:19:23.141Z,1007.29
2018-07-28T04:20:23.122Z,1007.21
2018-07-28T04:21:23.102Z,1007.19
2018-07-28T04:22:23.077Z,1007.18
2018-07-28T04:23:23.057Z,1007.14
2018-07-28T04:24:23.034Z,1007.16
2018-07-28T04:25:23.018Z,1007.17
2018-07-28T04:26:22.995Z,1007.19
2018-07-28T04:27:22.973Z,1007.13
2018-07-28T04:28:22.950Z,1007.16
2018-07-28T04:29:22.945Z,1007.19
2018-07-28T04:30:22.912Z,1007.14
2018-07-28T04:31:22.886Z,1007.16
2018-07-28T04:32:22.862Z,1007.15
2018-07-28T04:33:22.842Z,1007.16
2018-07-28T04:34:22.821Z,1007.15
2018-07-28T04:35:22.799Z,1007.17
2018-07-28T04:36:22.779Z,1007.18
2018-07-28T04:37:22.758Z,1007.17
2018-07-28T04:38:22.742Z,1007.16
2018-07-28T04:39:22.719Z,1007.14
2018-07-28T04:40:22.701Z,1007.13
2018-07-28T04:41:22.672Z,1007.13
2018-07-28T04:42:22.650Z,1007.11
2018-07-28T04:43:22.628Z,1006.95
2018-07-28T04:44:22.613Z,1007.18
2018-07-28T04:45:22.588Z,1007.14
2018-07-28T04:46:22.568Z,1007.15
2018-07-28T04:47:22.546Z,1007.20
2018-07-28T04:48:22.525Z,1007.22
2018-07-28T04:49:22.505Z,1007.19
2018-07-28T04:50:22.482Z,1007.21
2018-07-28T04:51:22.469Z,1007.16
2018-07-28T04:52:22.441Z,1007.22
2018-07-28T04:53:22.621Z,1007.28
2018-07-28T04:54:23.211Z,1007.31
2018-07-28T04:55:22.579Z,1007.33
2018-07-28T04:56:22.354Z,1007.35
2018-07-28T04:58:04.691Z,1007.32
2018-07-28T04:59:04.673Z,1007.35
2018-07-28T05:00:04.649Z,1007.29
2018-07-28T05:01:04.633Z,1007.23
2018-07-28T05:02:04.618Z,1007.27
2018-07-28T05:03:04.391Z,1007.30
2018-07-28T05:04:04.369Z,1007.32
2018-07-28T05:05:04.347Z,1007.31
2018-07-28T05:06:04.326Z,1007.22
2018-07-28T05:07:04.306Z,1007.29
2018-07-28T05:08:04.287Z,1007.25
2018-07-28T05:09:04.269Z,1007.24
2018-07-28T05:10:04.249Z,1007.29
2018-07-28T05:11:04.228Z,1007.26
2018-07-28T05:12:04.209Z,1007.29
2018-07-28T05:13:04.190Z,1007.49
2018-07-28T05:14:04.170Z,1007.62
2018-07-28T05:15:04.151Z,1007.63
2018-07-28T05:16:04.211Z,1007.63
2018-07-28T05:17:04.113Z,1007.56
2018-07-28T05:18:04.101Z,1007.61
2018-07-28T05:19:04.070Z,1007.66
2018-07-28T05:20:04.051Z,1007.62
2018-07-28T05:21:04.033Z,1007.67
2018-07-28T05:22:04.017Z,1007.67
2018-07-28T05:23:03.995Z,1007.81
2018-07-28T05:24:04.047Z,1007.88
2018-07-28T05:25:03.958Z,1007.88
2018-07-28T05:26:03.936Z,1007.79
2018-07-28T05:27:03.917Z,1007.91
2018-07-28T05:28:03.898Z,1008.47
2018-07-28T05:29:04.087Z,1008.59
2018-07-28T05:30:03.861Z,1008.16
2018-07-28T05:31:03.841Z,1007.56
2018-07-28T05:32:03.826Z,1007.50
2018-07-28T05:33:03.807Z,1007.51
2018-07-28T05:34:03.788Z,1007.52
2018-07-28T05:35:03.769Z,1007.46
2018-07-28T05:36:03.902Z,1007.49
2018-07-28T05:37:03.775Z,1007.49
2018-07-28T05:38:03.714Z,1007.42
2018-07-28T05:39:03.727Z,1007.45
2018-07-28T05:40:03.879Z,1007.43
2018-07-28T05:41:03.660Z,1007.40
2018-07-28T05:42:03.643Z,1007.42
2018-07-28T05:43:03.624Z,1007.43
2018-07-28T05:44:03.605Z,1007.50
2018-07-28T05:45:03.590Z,1007.51
2018-07-28T05:46:03.572Z,1007.44
2018-07-28T05:47:03.558Z,1007.51
2018-07-28T05:48:03.739Z,1007.50
2018-07-28T05:49:03.522Z,1007.53
2018-07-28T05:50:03.544Z,1007.50
2018-07-28T05:51:03.478Z,1007.52
2018-07-28T05:52:03.461Z,1007.44
2018-07-28T05:53:03.450Z,1007.43
2018-07-28T05:54:03.428Z,1007.45
2018-07-28T05:55:03.410Z,1007.43
2018-07-28T05:56:03.393Z,1007.44
2018-07-28T05:57:03.374Z,1007.42
2018-07-28T05:58:03.356Z,1007.47
2018-07-28T05:59:03.341Z,1007.45
2018-07-28T06:00:03.321Z,1007.42
2018-07-28T06:01:03.306Z,1007.46
2018-07-28T06:02:03.491Z,1007.46
2018-07-28T06:03:03.271Z,1007.52
2018-07-28T06:04:03.256Z,1007.52
2018-07-28T06:05:03.244Z,1007.56
2018-07-28T06:06:03.521Z,1007.59
2018-07-28T06:07:07.037Z,1007.58
2018-07-28T06:08:03.386Z,1007.55
2018-07-28T06:09:03.171Z,1007.54
2018-07-28T06:10:03.371Z,1007.60
2018-07-28T06:11:03.141Z,1007.57
2018-07-28T06:12:03.120Z,1007.64
2018-07-28T06:13:03.103Z,1007.90
2018-07-28T06:14:03.125Z,1008.03
2018-07-28T06:15:03.069Z,1007.96
2018-07-28T06:16:03.051Z,1008.10
2018-07-28T06:17:03.037Z,1008.09
2018-07-28T06:18:03.017Z,1008.10
2018-07-28T06:19:03.001Z,1008.05
2018-07-28T06:20:02.988Z,1008.20
2018-07-28T06:21:02.971Z,1008.15
2018-07-28T06:22:03.042Z,1008.21
2018-07-28T06:23:02.938Z,1008.23
2018-07-28T06:24:02.923Z,1008.26
2018-07-28T06:25:03.109Z,1008.20
2018-07-28T06:26:02.954Z,1008.23
2018-07-28T06:27:02.871Z,1008.26
2018-07-28T06:28:02.866Z,1008.33
2018-07-28T06:29:02.851Z,1008.26
2018-07-28T06:30:02.826Z,1008.25
2018-07-28T06:31:02.810Z,1008.42
2018-07-28T06:32:02.797Z,1008.41
2018-07-28T06:33:02.778Z,1008.28
2018-07-28T06:34:02.965Z,1008.32
2018-07-28T06:35:02.745Z,1008.31
2018-07-28T06:36:02.936Z,1008.31
2018-07-28T06:37:02.915Z,1008.34
2018-07-28T06:38:02.899Z,1008.23
2018-07-28T06:39:02.680Z,1008.19
2018-07-28T06:40:02.867Z,1008.32
2018-07-28T06:41:02.652Z,1008.36
2018-07-28T06:42:02.637Z,1008.37
2018-07-28T06:43:02.622Z,1008.28
2018-07-28T06:44:02.607Z,1008.25
2018-07-28T06:45:02.587Z,1008.31
2018-07-28T06:46:02.572Z,1008.27
2018-07-28T06:47:02.761Z,1008.19
2018-07-28T06:48:02.544Z,1008.16
2018-07-28T06:49:02.527Z,1007.93
2018-07-28T06:50:02.511Z,1007.97
2018-07-28T06:51:02.696Z,1008.04
2018-07-28T06:52:02.480Z,1008.17
2018-07-28T06:53:02.468Z,1008.11
2018-07-28T06:54:02.655Z,1008.24
2018-07-28T06:55:02.640Z,1008.20
2018-07-28T06:56:02.622Z,1008.19
2018-07-28T06:57:02.405Z,1008.08
2018-07-28T06:58:02.591Z,1008.17
2018-07-28T06:59:02.576Z,1008.22
2018-07-28T07:00:02.561Z,1008.11
2018-07-28T07:01:44.707Z,1008.12
2018-07-28T07:02:44.487Z,1008.09
2018-07-28T07:03:44.479Z,1008.04
2018-07-28T07:04:51.701Z,1008.05
2018-07-28T07:05:44.444Z,1008.21
2018-07-28T07:06:44.428Z,1008.03
2018-07-28T07:07:44.622Z,1008.04
2018-07-28T07:08:44.398Z,1008.02
2018-07-28T07:09:44.589Z,1007.99
2018-07-28T07:11:26.730Z,1008.07
2018-07-28T07:13:08.873Z,1007.75
2018-07-28T07:14:12.693Z,1007.18
2018-07-28T07:15:08.842Z,1007.64
2018-07-28T07:16:08.831Z,1007.19
2018-07-28T07:17:08.815Z,1006.83
2018-07-28T07:18:08.801Z,1007.13
2018-07-28T07:19:50.945Z,1007.95
2018-07-28T07:20:53.347Z,1008.14
2018-07-28T07:21:50.710Z,1008.11
2018-07-28T07:22:51.202Z,1008.14
2018-07-28T07:23:50.883Z,1008.01
2018-07-28T07:35:23.396Z,1007.72
2018-07-28T07:36:23.232Z,1007.84
2018-07-28T07:37:26.104Z,1007.78
2018-07-28T07:38:24.020Z,1007.67
2018-07-28T07:40:05.348Z,1007.62
2018-07-28T07:41:05.129Z,1007.73
2018-07-28T07:42:05.116Z,1007.63
2018-07-28T07:43:05.309Z,1007.61
2018-07-28T07:44:05.292Z,1007.47
2018-07-28T07:45:05.278Z,1007.65
2018-07-28T07:46:05.266Z,1007.53
2018-07-28T07:47:05.058Z,1007.66
2018-07-28T07:48:05.233Z,1007.54
2018-07-28T07:56:49.124Z,1007.41
2018-07-28T07:57:48.756Z,1007.39
2018-07-28T07:58:48.740Z,1007.44
2018-07-28T07:59:48.732Z,1007.42
2018-07-28T08:00:48.922Z,1007.43
2018-07-28T08:01:48.923Z,1007.46
2018-07-28T08:02:48.688Z,1007.42
2018-07-28T08:03:48.673Z,1007.46
2018-07-28T08:04:48.890Z,1007.43
2018-07-28T08:05:48.859Z,1007.45
2018-07-28T08:06:48.634Z,1007.33
2018-07-28T08:07:48.626Z,1007.40
2018-07-28T08:08:48.613Z,1007.39
2018-07-28T08:09:48.601Z,1007.36
2018-07-28T08:10:48.588Z,1007.36
2018-07-28T08:11:48.571Z,1007.42
2018-07-28T08:12:48.559Z,1007.33
2018-07-28T08:13:48.747Z,1007.30
2018-07-28T08:14:48.734Z,1007.32
2018-07-28T08:15:48.720Z,1007.28
2018-07-28T08:16:48.505Z,1007.38
2018-07-28T08:17:48.693Z,1007.20
2018-07-28T08:18:52.114Z,1007.26
2018-07-28T08:19:48.469Z,1007.28
2018-07-28T08:20:48.664Z,1007.30
2018-07-28T08:21:48.445Z,1007.34
2018-07-28T08:22:48.640Z,1007.30
2018-07-28T08:23:48.620Z,1007.13
2018-07-28T08:24:48.612Z,1007.18
2018-07-28T08:25:48.603Z,1007.14
2018-07-28T08:26:51.282Z,1007.13
2018-07-28T08:28:30.732Z,1007.07
2018-07-28T08:29:30.720Z,1007.21
2018-07-28T08:30:30.507Z,1007.13
2018-07-28T08:31:30.496Z,1007.03
2018-07-28T08:32:30.692Z,1007.12
2018-07-28T08:33:30.746Z,1007.16
2018-07-28T08:34:30.460Z,1007.19
2018-07-28T08:35:30.648Z,1007.25
2018-07-28T08:36:34.274Z,1007.22
2018-07-28T08:37:30.624Z,1007.29
2018-07-28T08:38:30.614Z,1007.28
2018-07-28T08:39:30.412Z,1007.28
2018-07-28T08:40:30.595Z,1007.23
2018-07-28T08:41:30.580Z,1007.29
2018-07-28T08:42:30.366Z,1007.32
2018-07-28T08:43:30.558Z,1007.33
2018-07-28T08:44:31.356Z,1007.30
2018-07-28T08:45:30.543Z,1007.34
2018-07-28T08:46:30.528Z,1007.34
2018-07-28T08:47:30.509Z,1007.30
2018-07-28T08:48:30.503Z,1007.20
2018-07-28T08:49:30.541Z,1006.93
2018-07-28T08:50:30.476Z,1006.75
2018-07-28T08:51:30.464Z,1006.76
2018-07-28T08:52:30.259Z,1006.76
2018-07-28T08:53:30.242Z,1007.19
2018-07-28T08:54:30.234Z,1007.25
2018-07-28T08:55:30.251Z,1007.16
2018-07-28T08:56:30.204Z,1007.29
2018-07-28T08:57:30.193Z,1007.29
2018-07-28T08:58:30.182Z,1007.21
2018-07-28T08:59:30.373Z,1007.29
2018-07-28T09:00:30.363Z,1007.30
2018-07-28T09:01:30.356Z,1007.30
2018-07-28T09:02:30.491Z,1007.33
2018-07-28T09:03:30.330Z,1007.43
2018-07-28T09:04:30.320Z,1007.42
2018-07-28T09:05:30.308Z,1007.51
2018-07-28T09:07:12.457Z,1007.44
2018-07-28T09:08:12.447Z,1007.49
2018-07-28T09:09:12.233Z,1007.29
2018-07-28T09:10:12.225Z,1007.18
2018-07-28T09:11:12.430Z,1007.37
2018-07-28T09:12:12.202Z,1007.35
2018-07-28T09:13:12.399Z,1007.36
2018-07-28T09:14:12.183Z,1006.98
2018-07-28T09:15:12.171Z,1006.78
2018-07-28T09:16:12.362Z,1007.17
2018-07-28T09:17:12.149Z,1007.06
2018-07-28T09:18:12.142Z,1007.18
2018-07-28T09:19:12.134Z,1007.21
2018-07-28T09:20:12.119Z,1007.15
2018-07-28T09:21:12.110Z,1007.03
2018-07-28T09:22:12.098Z,1006.92
2018-07-28T09:23:12.128Z,1006.87
2018-07-28T09:24:12.079Z,1006.76
2018-07-28T09:25:12.270Z,1006.73
2018-07-28T09:26:12.265Z,1006.73
2018-07-28T09:27:54.411Z,1006.74
2018-07-28T09:29:36.567Z,1006.86
2018-07-28T09:30:36.428Z,1007.04
2018-07-28T09:31:36.340Z,1007.00
2018-07-28T09:32:36.335Z,1007.37
2018-07-28T09:33:36.323Z,1006.51
2018-07-28T09:34:36.313Z,1006.05
2018-07-28T09:35:36.506Z,1005.63
2018-07-28T09:36:36.542Z,1005.65
2018-07-28T09:37:36.492Z,1005.56
2018-07-28T09:38:36.276Z,1005.62
2018-07-28T09:39:36.262Z,1005.44
2018-07-28T09:40:36.256Z,1005.61
2018-07-28T09:41:36.245Z,1005.60
2018-07-28T09:42:36.241Z,1005.60
2018-07-28T09:43:36.226Z,1005.58
2018-07-28T09:44:36.226Z,1005.65
2018-07-28T09:45:36.207Z,1005.62
2018-07-28T09:46:36.197Z,1005.50
2018-07-28T09:47:36.389Z,1005.63
2018-07-28T09:48:36.379Z,1005.56
2018-07-28T09:49:36.368Z,1005.56
2018-07-28T09:50:36.156Z,1005.46
2018-07-28T09:51:36.145Z,1005.50
2018-07-28T09:52:36.138Z,1005.35
2018-07-28T09:53:36.134Z,1005.43
2018-07-28T09:54:36.117Z,1005.48
2018-07-28T09:55:36.106Z,1005.50
2018-07-28T09:56:36.097Z,1005.50
2018-07-28T09:57:36.089Z,1005.56
2018-07-28T09:58:36.075Z,1005.58
2018-07-28T09:59:36.066Z,1005.62
2018-07-28T10:00:36.057Z,1005.49
2018-07-28T10:01:36.048Z,1005.50
2018-07-28T10:02:36.038Z,1005.46
2018-07-28T10:03:36.028Z,1005.45
2018-07-28T10:04:36.021Z,1005.33
2018-07-28T10:05:36.043Z,1005.37
2018-07-28T10:06:36.010Z,1005.37
2018-07-28T10:07:35.993Z,1005.42
2018-07-28T10:08:35.979Z,1005.44
2018-07-28T10:09:35.971Z,1005.52
2018-07-28T10:10:35.964Z,1005.38
2018-07-28T10:11:36.155Z,1005.43
2018-07-28T10:12:35.949Z,1005.44
2018-07-28T10:13:35.934Z,1005.57
2018-07-28T10:14:35.924Z,1005.53
2018-07-28T10:15:35.916Z,1005.49
2018-07-28T10:16:35.911Z,1005.58
2018-07-28T10:17:36.102Z,1005.59
2018-07-28T10:18:35.889Z,1005.28
2018-07-28T10:19:36.083Z,1005.28
2018-07-28T10:20:36.079Z,1005.29
2018-07-28T10:21:35.863Z,1005.44
2018-07-28T10:22:35.859Z,1005.40
2018-07-28T10:23:35.842Z,1005.36
2018-07-28T10:24:35.870Z,1005.65
2018-07-28T10:25:35.824Z,1005.59
2018-07-28T10:26:35.827Z,1005.72
2018-07-28T10:27:35.809Z,1005.50
2018-07-28T10:28:35.792Z,1005.68
2018-07-28T10:29:35.782Z,1005.49
2018-07-28T10:30:35.772Z,1005.43
2018-07-28T10:31:35.762Z,1005.53
2018-07-28T10:32:35.758Z,1005.50
2018-07-28T10:33:35.746Z,1005.33
2018-07-28T10:34:35.742Z,1005.33
2018-07-28T10:35:35.725Z,1005.37
2018-07-28T10:36:35.795Z,1005.19
2018-07-28T10:37:35.704Z,1005.27
2018-07-28T10:38:35.698Z,1005.24
2018-07-28T10:39:35.888Z,1005.36
2018-07-28T10:40:35.679Z,1005.42
2018-07-28T10:41:35.683Z,1005.40
2018-07-28T10:42:35.676Z,1005.42
2018-07-28T10:43:35.652Z,1005.52
2018-07-28T10:44:35.637Z,1005.03
2018-07-28T10:45:35.658Z,1005.10
2018-07-28T10:46:35.621Z,1005.37
2018-07-28T10:47:35.609Z,1005.44
2018-07-28T10:48:35.630Z,1005.83
2018-07-28T10:49:35.591Z,1005.72
2018-07-28T10:50:35.579Z,1005.84
2018-07-28T10:51:35.570Z,1005.80
2018-07-28T10:52:35.561Z,1005.88
2018-07-28T10:53:35.553Z,1005.80
2018-07-28T10:54:35.547Z,1005.47
2018-07-28T10:55:35.610Z,1005.34
2018-07-28T10:56:35.524Z,1005.38
2018-07-28T10:57:35.514Z,1005.33
2018-07-28T10:58:35.506Z,1005.79
2018-07-28T10:59:35.498Z,1005.88
2018-07-28T11:00:35.488Z,1005.42
2018-07-28T11:01:35.480Z,1005.59
2018-07-28T11:02:35.471Z,1005.36
2018-07-28T11:03:35.460Z,1005.21
2018-07-28T11:04:35.452Z,1005.34
2018-07-28T11:05:35.443Z,1005.27
2018-07-28T11:06:35.433Z,1005.25
2018-07-28T11:07:35.423Z,1005.16
2018-07-28T11:08:35.412Z,1005.13
2018-07-28T11:09:35.402Z,1005.16
2018-07-28T11:10:35.391Z,1005.29
2018-07-28T11:11:35.380Z,1005.16
2018-07-28T11:12:35.372Z,1005.08
2018-07-28T11:13:35.361Z,1005.11
2018-07-28T11:14:35.348Z,1005.13
2018-07-28T11:15:35.338Z,1005.17
2018-07-28T11:16:35.324Z,1005.13
2018-07-28T11:17:35.313Z,1005.11
2018-07-28T11:18:35.327Z,1005.05
2018-07-28T11:19:35.289Z,1005.18
2018-07-28T11:20:35.287Z,1004.94
2018-07-28T11:21:35.271Z,1005.06
2018-07-28T11:22:35.462Z,1005.05
2018-07-28T11:23:35.242Z,1005.22
2018-07-28T11:24:35.235Z,1005.17
2018-07-28T11:25:35.241Z,1004.98
2018-07-28T11:26:35.208Z,1005.15
2018-07-28T11:27:35.196Z,1005.10
2018-07-28T11:28:35.185Z,1005.14
2018-07-28T11:29:35.169Z,1005.15
2018-07-28T11:30:35.155Z,1005.25
2018-07-28T11:31:35.181Z,1005.47
2018-07-28T11:32:35.134Z,1005.31
2018-07-28T11:33:35.126Z,1005.13
2018-07-28T11:34:35.513Z,1005.16
2018-07-28T11:39:06.102Z,1005.36
2018-07-28T11:40:06.090Z,1006.14
2018-07-28T11:41:09.714Z,1006.06
2018-07-28T11:42:05.883Z,1006.14
2018-07-28T11:43:05.854Z,1006.02
2018-07-28T11:44:08.467Z,1005.98
2018-07-28T11:45:05.833Z,1005.93
2018-07-28T11:46:06.024Z,1005.92
2018-07-28T11:47:05.811Z,1005.86
2018-07-28T11:48:06.003Z,1005.84
2018-07-28T11:49:05.800Z,1005.97
2018-07-28T11:50:05.987Z,1005.95
2018-07-28T11:51:05.785Z,1005.84
2018-07-28T11:52:05.969Z,1005.74
2018-07-28T11:53:05.969Z,1005.62
2018-07-28T11:54:05.953Z,1005.73
2018-07-28T11:55:05.947Z,1005.76
2018-07-28T11:56:48.101Z,1005.60
2018-07-28T11:57:48.097Z,1005.48
2018-07-28T11:58:47.882Z,1005.57
2018-07-28T11:59:48.081Z,1005.49
2018-07-28T12:00:47.871Z,1005.47
2018-07-28T12:01:48.140Z,1005.34
2018-07-28T12:04:54.555Z,1005.32
2018-07-28T12:05:54.345Z,1005.34
2018-07-28T12:06:54.342Z,1005.35
2018-07-28T12:07:54.339Z,1005.29
2018-07-28T12:08:54.325Z,1005.19
2018-07-28T12:09:54.318Z,1005.10
2018-07-28T12:10:54.312Z,1005.03
2018-07-28T12:11:54.306Z,1004.80
2018-07-28T12:12:54.296Z,1004.94
2018-07-28T12:13:54.289Z,1005.08
2018-07-28T12:14:54.282Z,1005.01
2018-07-28T12:15:54.285Z,1004.98
2018-07-28T12:16:54.472Z,1004.95
2018-07-28T12:17:54.264Z,1004.95
2018-07-28T12:18:54.256Z,1004.94
2018-07-28T12:19:54.249Z,1004.85
2018-07-28T12:20:58.280Z,1004.69
2018-07-28T12:26:10.047Z,1004.80
2018-07-28T12:34:02.564Z,1004.88
2018-07-28T12:50:30.167Z,1004.92
2018-07-28T13:02:02.614Z,1004.47
2018-07-28T13:03:44.768Z,1004.17
2018-07-28T13:04:44.759Z,1004.08
2018-07-28T13:05:44.747Z,1004.13
2018-07-28T13:06:44.540Z,1004.13
2018-07-28T13:07:44.531Z,1004.15
2018-07-28T13:08:44.720Z,1004.08
2018-07-28T13:09:44.921Z,1003.90
2018-07-28T13:10:44.708Z,1003.80
2018-07-28T13:11:44.497Z,1003.43
2018-07-28T13:12:45.082Z,1003.69
2018-07-28T13:13:44.666Z,1003.79
2018-07-28T13:14:44.463Z,1003.70
2018-07-28T13:15:45.658Z,1003.74